Time;durP1;ratioP1;P1;durP2;ratioP2;P2;SDS_P1;SDS_P2;PMS_P1;PMS_P2;Temp;Humidity;BMP_temperature;BMP_pressure;BME280_temperature;BME280_humidity;BME280_pressure;Samples;Min_cycle;Max_cycle;Signal;HPM_P1;HPM_P2
2021/07/04 00:01:18;;;;;;;5.30;3.92;;;18.20;99.90;;;17.47;80.23;97245.56;5035926;28;20041;-63
2021/07/04 00:04:06;;;;;;;7.50;4.70;;;18.10;99.90;;;17.35;80.83;97247.31;5052123;28;20223;-63
2021/07/04 00:06:54;;;;;;;9.38;4.97;;;18.10;99.90;;;17.25;81.54;97246.34;5054686;28;20130;-63
2021/07/04 00:09:41;;;;;;;7.30;4.10;;;18.10;99.90;;;17.28;81.58;97243.47;5056273;28;20082;-64
2021/07/04 00:12:29;;;;;;;8.23;4.75;;;18.10;99.90;;;17.29;81.61;97239.09;5066154;28;20041;-63
2021/07/04 00:15:22;;;;;;;8.10;4.60;;;18.10;99.90;;;17.25;82.13;97238.47;5052114;28;20420;-63
2021/07/04 00:18:12;;;;;;;;;;;18.10;99.90;;;17.36;81.59;97232.44;5055231;28;20037;-63
2021/07/04 00:21:03;;;;;;;6.55;4.57;;;18.10;99.90;;;17.40;81.52;97225.13;5059718;28;19947;-63
2021/07/04 00:23:51;;;;;;;8.43;4.50;;;18.00;99.90;;;17.44;81.49;97230.03;5062049;28;20532;-63
2021/07/04 00:26:39;;;;;;;7.80;4.82;;;18.00;99.90;;;17.35;81.99;97220.25;5065727;28;20176;-63
2021/07/04 00:29:26;;;;;;;8.05;5.00;;;18.00;99.90;;;17.28;82.38;97224.28;5044740;28;20037;-63
2021/07/04 00:32:13;;;;;;;7.35;4.40;;;18.00;99.90;;;17.32;82.39;97218.69;5060445;28;20424;-63
2021/07/04 00:35:01;;;;;;;8.48;4.95;;;18.00;99.90;;;17.39;82.28;97226.09;5060696;28;20049;-63
2021/07/04 00:37:49;;;;;;;9.63;4.93;;;18.00;99.90;;;17.29;82.83;97220.72;5065986;28;20048;-63
2021/07/04 00:40:37;;;;;;;7.13;5.15;;;17.90;99.90;;;17.18;83.49;97220.69;5054452;28;20536;-63
2021/07/04 00:43:25;;;;;;;7.75;4.35;;;17.90;99.90;;;17.18;83.51;97216.28;5057266;28;20516;-63
2021/07/04 00:46:12;;;;;;;7.57;4.57;;;17.90;99.90;;;17.05;84.16;97216.34;5052042;28;20636;-63
2021/07/04 00:49:01;;;;;;;7.55;4.90;;;17.90;99.90;;;17.07;84.23;97221.50;5052320;28;20171;-63
2021/07/04 00:51:48;;;;;;;6.80;5.05;;;17.80;99.90;;;17.09;84.58;97211.72;5048086;28;20033;-63
2021/07/04 00:54:36;;;;;;;7.50;4.63;;;17.70;99.90;;;17.06;84.73;97222.44;5058106;28;20047;-63
2021/07/04 00:57:24;;;;;;;10.95;5.28;;;17.70;99.90;;;16.92;85.55;97220.81;5061173;28;20040;-63
2021/07/04 01:00:18;;;;;;;8.95;5.55;;;17.70;99.90;;;16.90;86.05;97217.47;5059347;28;20060;-63
2021/07/04 01:03:05;;;;;;;9.02;4.80;;;17.70;99.90;;;17.05;85.28;97216.34;5061765;28;20497;-63
2021/07/04 01:05:53;;;;;;;7.88;5.28;;;17.70;99.90;;;17.01;85.68;97214.91;5054032;28;20051;-63
2021/07/04 01:08:40;;;;;;;13.63;5.10;;;17.70;99.90;;;16.99;85.89;97210.72;5064823;28;20111;-63
2021/07/04 01:11:27;;;;;;;7.82;5.13;;;17.70;99.90;;;16.95;86.04;97217.16;5053439;28;20095;-63
2021/07/04 01:14:16;;;;;;;9.23;5.03;;;17.60;99.90;;;16.87;86.53;97223.78;5062044;28;20063;-63
2021/07/04 01:17:03;;;;;;;8.93;4.97;;;17.70;99.90;;;16.87;86.74;97215.94;5050205;28;20076;-63
2021/07/04 01:19:51;;;;;;;8.32;5.35;;;17.70;99.90;;;16.91;86.68;97220.00;5056225;28;20324;-63
2021/07/04 01:22:40;;;;;;;6.20;4.88;;;17.80;99.90;;;16.98;86.45;97214.31;5064711;28;20036;-63
2021/07/04 01:25:31;;;;;;;8.85;5.60;;;17.70;99.90;;;16.84;87.63;97212.72;5066112;28;20555;-63
2021/07/04 01:28:18;;;;;;;8.07;5.35;;;17.70;99.90;;;16.82;87.83;97214.59;5046065;28;20083;-63
2021/07/04 01:31:06;;;;;;;9.65;5.68;;;17.70;99.90;;;16.85;87.81;97212.59;5048516;28;20523;-63
2021/07/04 01:33:53;;;;;;;7.78;5.55;;;17.70;99.90;;;16.77;88.26;97212.28;5049351;28;20036;-63
2021/07/04 01:36:41;;;;;;;9.10;5.65;;;17.70;99.90;;;16.78;88.43;97215.75;5064627;28;20068;-63
2021/07/04 01:39:28;;;;;;;9.05;5.35;;;17.70;99.90;;;16.85;88.04;97215.19;5057158;28;20123;-63
2021/07/04 01:42:15;;;;;;;11.23;5.82;;;17.70;99.90;;;16.71;88.85;97212.72;5058807;28;20291;-63
2021/07/04 01:45:04;;;;;;;8.73;5.60;;;17.70;99.90;;;16.74;88.94;97207.28;5058859;28;20037;-63
2021/07/04 01:47:54;;;;;;;6.93;5.10;;;17.70;99.90;;;16.75;88.72;97206.31;5065261;28;20040;-63
2021/07/04 01:50:46;;;;;;;7.85;5.95;;;17.70;99.90;;;16.66;89.38;97207.84;5058796;28;20132;-63
2021/07/04 01:53:35;;;;;;;8.70;6.05;;;17.70;99.90;;;16.75;89.21;97206.31;5064074;28;20041;-63
2021/07/04 01:56:22;;;;;;;7.55;5.13;;;17.70;99.90;;;16.85;88.56;97201.25;5061739;28;20032;-63
2021/07/04 01:59:09;;;;;;;10.02;4.70;;;17.60;99.90;;;16.95;87.95;97204.06;5057920;28;20045;-63
2021/07/04 02:01:57;;;;;;;9.13;6.88;;;17.50;99.90;;;16.76;88.99;97194.06;5060207;28;20068;-63
2021/07/04 02:04:44;;;;;;;8.35;5.25;;;17.50;99.90;;;16.76;89.13;97199.28;5063606;28;20032;-63
2021/07/04 02:07:32;;;;;;;7.10;5.55;;;17.50;99.90;;;16.69;89.68;97196.28;5036034;28;20080;-63
2021/07/04 02:10:29;;;;;;;11.85;7.00;;;17.50;99.90;;;16.58;90.54;97199.72;5063760;28;20453;-63
2021/07/04 02:13:16;;;;;;;9.27;5.60;;;17.50;99.90;;;16.61;90.53;97203.88;5061743;28;20029;-63
2021/07/04 02:16:04;;;;;;;7.93;5.75;;;17.50;99.90;;;16.53;91.01;97199.19;5057786;28;20033;-63
2021/07/04 02:18:52;;;;;;;9.43;6.03;;;17.50;99.90;;;16.69;90.10;97194.53;5059445;28;20049;-63
2021/07/04 02:21:39;;;;;;;7.72;5.80;;;17.50;99.90;;;16.68;90.25;97199.88;5064217;28;20116;-63
2021/07/04 02:24:27;;;;;;;9.40;6.50;;;17.40;99.90;;;16.57;91.03;97202.44;5061324;28;20611;-63
2021/07/04 02:27:14;;;;;;;8.95;6.15;;;17.40;99.90;;;16.58;91.08;97196.22;5057612;28;20036;-63
2021/07/04 02:30:03;;;;;;;7.80;5.80;;;17.40;99.90;;;16.61;91.08;97201.28;5056239;28;20484;-63
2021/07/04 02:32:51;;;;;;;11.82;7.10;;;17.40;99.90;;;16.58;91.28;97202.34;5058551;28;20504;-63
2021/07/04 02:35:43;;;;;;;9.25;6.43;;;17.50;99.90;;;16.56;91.55;97199.00;5060662;28;20045;-63
2021/07/04 02:38:31;;;;;;;9.35;6.35;;;17.40;99.90;;;16.58;91.56;97199.72;5054545;28;20095;-63
2021/07/04 02:41:18;;;;;;;10.35;5.50;;;17.40;99.90;;;16.52;91.88;97197.53;5049021;28;20088;-63
2021/07/04 02:44:06;;;;;;;10.95;6.05;;;17.30;99.90;;;16.55;92.04;97197.28;5057572;28;20060;-63
2021/07/04 02:46:53;;;;;;;8.68;6.05;;;17.40;99.90;;;16.58;92.08;97194.47;5059173;28;20420;-63
2021/07/04 02:49:41;;;;;;;9.35;6.50;;;17.30;99.90;;;16.61;92.23;97196.84;5059191;28;21473;-63
2021/07/04 02:52:28;;;;;;;8.82;6.35;;;17.30;99.90;;;16.54;92.47;97198.25;5062844;28;20037;-63
2021/07/04 02:55:15;;;;;;;9.38;6.95;;;17.30;99.90;;;16.47;93.05;97200.47;5055347;28;20065;-63
2021/07/04 02:58:04;;;;;;;9.32;5.80;;;17.30;99.90;;;16.53;92.78;97196.56;5054291;28;20527;-63
2021/07/04 03:00:52;;;;;;;10.00;6.68;;;17.30;99.90;;;16.44;93.07;97199.84;5056643;28;20044;-63
2021/07/04 03:03:40;;;;;;;9.93;6.65;;;17.30;99.90;;;16.51;92.63;97195.84;5057094;28;20233;-63
2021/07/04 03:06:27;;;;;;;9.10;7.00;;;17.30;99.90;;;16.41;93.27;97192.22;5065963;28;20037;-63
2021/07/04 03:09:14;;;;;;;8.30;5.63;;;17.30;99.90;;;16.47;93.13;97197.88;5057621;28;20170;-63
2021/07/04 03:12:04;;;;;;;8.38;5.72;;;17.30;99.90;;;16.44;93.27;97195.44;5068599;28;20131;-63
2021/07/04 03:14:51;;;;;;;10.75;6.18;;;17.20;99.90;;;16.39;93.66;97194.13;5059901;28;20456;-63
2021/07/04 03:17:39;;;;;;;12.43;6.85;;;17.10;99.90;;;16.38;94.02;97195.91;5054429;28;20095;-63
2021/07/04 03:20:26;;;;;;;10.85;6.70;;;17.10;99.90;;;16.38;94.05;97197.69;5060337;28;20100;-63
2021/07/04 03:23:14;;;;;;;11.30;7.07;;;17.10;99.90;;;16.27;94.64;97198.47;5066315;28;20051;-63
2021/07/04 03:26:01;;;;;;;11.30;7.35;;;17.10;99.90;;;16.12;95.78;97197.75;5046070;28;20124;-63
2021/07/04 03:28:49;;;;;;;10.32;6.68;;;17.10;99.90;;;16.37;94.31;97193.41;5064736;28;20048;-63
2021/07/04 03:31:36;;;;;;;8.75;6.78;;;17.10;99.90;;;16.40;93.75;97196.63;5060415;28;20072;-63
2021/07/04 03:34:23;;;;;;;8.05;6.15;;;17.10;99.90;;;16.57;92.59;97189.34;5063875;28;20063;-63
2021/07/04 03:37:11;;;;;;;8.95;5.32;;;17.10;99.90;;;16.66;91.80;97183.41;5062067;28;20409;-63
2021/07/04 03:39:58;;;;;;;9.50;5.88;;;17.20;99.90;;;16.57;91.86;97187.53;5060568;28;20036;-63
2021/07/04 03:42:47;;;;;;;9.27;6.30;;;17.30;99.90;;;16.45;92.84;97197.13;5066372;28;20095;-63
2021/07/04 03:45:34;;;;;;;9.20;6.22;;;17.20;99.90;;;16.28;93.88;97195.75;5065307;28;20051;-63
2021/07/04 03:48:22;;;;;;;14.07;7.15;;;17.10;99.90;;;16.14;95.21;97195.03;5062572;28;20118;-63
2021/07/04 03:51:09;;;;;;;9.52;6.70;;;17.00;99.90;;;16.29;94.40;97197.41;5058314;28;20044;-66
2021/07/04 03:53:57;;;;;;;12.52;7.20;;;17.00;99.90;;;16.30;94.20;97199.06;5066199;28;20033;-63
2021/07/04 03:56:44;;;;;;;8.10;6.28;;;17.00;99.90;;;16.27;94.55;97204.53;5059954;28;20400;-63
2021/07/04 03:59:31;;;;;;;10.15;5.93;;;17.10;99.90;;;16.45;93.23;97196.31;5062024;28;20075;-63
2021/07/04 04:02:20;;;;;;;11.45;6.20;;;17.10;99.90;;;16.62;92.28;97197.69;5058380;28;20531;-63
2021/07/04 04:05:08;;;;;;;9.43;6.68;;;17.20;99.90;;;16.48;92.96;97196.06;5051298;28;20504;-63
2021/07/04 04:07:55;;;;;;;10.07;6.78;;;17.20;99.90;;;16.51;92.91;97203.69;5057359;28;20508;-62
2021/07/04 04:10:43;;;;;;;8.65;6.18;;;17.30;99.90;;;16.57;92.34;97198.03;5051928;28;20120;-63
2021/07/04 04:13:31;;;;;;;8.00;5.18;;;17.30;99.90;;;16.84;90.98;97197.81;5068077;28;20515;-63
2021/07/04 04:16:18;;;;;;;8.23;5.15;;;17.30;99.90;;;16.98;90.44;97195.97;5061641;28;20130;-63
2021/07/04 04:19:06;;;;;;;6.53;5.00;;;17.50;99.90;;;17.15;89.67;97192.88;5063067;28;20036;-63
2021/07/04 04:21:53;;;;;;;7.70;4.80;;;17.70;99.90;;;17.23;89.31;97195.78;5068880;28;20106;-62
2021/07/04 04:24:40;;;;;;;9.90;5.68;;;17.90;99.90;;;17.24;89.04;97194.84;5061786;28;20040;-62
2021/07/04 04:27:28;;;;;;;8.70;5.38;;;18.00;99.90;;;17.47;87.64;97193.09;5065970;28;20527;-62
2021/07/04 04:30:15;;;;;;;8.80;5.72;;;18.10;99.90;;;17.31;88.44;97189.94;5059449;28;20040;-62
2021/07/04 04:33:03;;;;;;;11.80;6.45;;;18.20;99.90;;;16.98;89.99;97193.34;5060104;28;20041;-62
2021/07/04 04:35:51;;;;;;;9.43;7.05;;;18.10;99.90;;;16.68;92.20;97197.25;5056168;28;20144;-62
2021/07/04 04:38:38;;;;;;;9.35;6.53;;;18.00;99.90;;;16.66;92.77;97204.38;5059800;28;20508;-62
2021/07/04 04:41:25;;;;;;;12.48;7.25;;;18.00;99.90;;;16.59;93.29;97198.75;5055223;28;20041;-62
2021/07/04 04:44:13;;;;;;;9.70;6.75;;;18.00;99.90;;;16.73;92.90;97193.31;5064345;28;20048;-62
2021/07/04 04:47:00;;;;;;;10.82;6.70;;;18.00;99.90;;;16.79;92.13;97185.97;5060100;28;20065;-62
2021/07/04 04:49:48;;;;;;;14.10;7.00;;;18.00;99.90;;;16.72;92.84;97188.22;5047552;28;20041;-62
2021/07/04 04:52:36;;;;;;;10.65;6.20;;;17.90;99.90;;;16.93;91.73;97186.66;5064549;28;20064;-62
2021/07/04 04:55:24;;;;;;;7.80;5.47;;;17.90;99.90;;;16.96;91.83;97192.63;5057331;28;20048;-62
2021/07/04 04:58:11;;;;;;;9.90;6.40;;;17.80;99.90;;;16.99;92.46;97184.50;5059159;28;20583;-63
2021/07/04 05:00:59;;;;;;;11.73;6.82;;;18.00;99.90;;;16.99;91.46;97188.00;5057723;28;20407;-62
2021/07/04 05:03:46;;;;;;;12.40;6.35;;;18.00;99.90;;;17.22;90.50;97180.16;5067087;28;20055;-63
2021/07/04 05:06:34;;;;;;;8.13;6.10;;;18.10;99.90;;;17.44;89.27;97180.19;5064773;28;20323;-63
2021/07/04 05:09:21;;;;;;;10.20;6.65;;;18.20;99.90;;;17.30;89.34;97173.38;5065806;28;20067;-62
2021/07/04 05:12:08;;;;;;;12.90;7.03;;;18.20;99.90;;;17.07;90.22;97182.16;5067859;28;20040;-62
2021/07/04 05:14:56;;;;;;;10.35;5.97;;;18.20;99.90;;;17.16;90.47;97168.34;5047392;28;20116;-62
2021/07/04 05:17:44;;;;;;;12.32;6.25;;;18.20;99.90;;;17.02;90.76;97172.03;5068565;28;20036;-62
2021/07/04 05:20:33;;;;;;;8.80;5.78;;;18.10;99.90;;;17.10;90.31;97179.28;5046204;28;20400;-62
2021/07/04 05:23:20;;;;;;;10.70;5.82;;;18.20;99.90;;;17.22;90.10;97169.66;5045628;28;20075;-62
2021/07/04 05:26:07;;;;;;;7.20;5.57;;;18.20;99.90;;;17.36;89.05;97164.22;5064089;28;20227;-64
2021/07/04 05:28:55;;;;;;;11.05;5.35;;;18.30;99.90;;;17.29;89.05;97166.47;5054483;28;20048;-62
2021/07/04 05:31:43;;;;;;;7.22;5.25;;;18.30;99.90;;;17.18;89.33;97163.00;5055048;28;20041;-62
2021/07/04 05:34:30;;;;;;;7.63;5.82;;;18.20;99.90;;;17.27;89.32;97164.91;5055114;28;20045;-62
2021/07/04 05:37:18;;;;;;;6.72;4.93;;;18.30;99.90;;;17.43;87.95;97159.34;5059580;28;20126;-62
2021/07/04 05:40:13;;;;;;;8.70;5.53;;;18.40;99.90;;;17.63;87.55;97153.38;5058438;28;20075;-62
2021/07/04 05:43:01;;;;;;;7.80;5.38;;;18.40;99.90;;;17.55;87.89;97153.13;5057463;28;20134;-62
2021/07/04 05:45:48;;;;;;;7.43;4.90;;;18.50;99.90;;;17.91;85.89;97149.44;5056865;28;20071;-62
2021/07/04 05:48:37;;;;;;;7.07;4.75;;;18.60;99.90;;;17.88;85.39;97146.22;5049401;28;20037;-62
2021/07/04 05:51:25;;;;;;;7.63;4.85;;;18.70;99.90;;;18.23;84.45;97147.84;5061523;28;20393;-65
2021/07/04 05:54:12;;;;;;;8.00;4.65;;;18.80;99.90;;;18.00;84.59;97150.50;5063837;28;20527;-65
2021/07/04 05:56:59;;;;;;;6.20;4.45;;;18.70;99.90;;;18.21;84.05;97145.31;5059895;28;20098;-62
2021/07/04 05:59:46;;;;;;;6.13;4.40;;;18.70;99.90;;;18.55;82.68;97135.53;5049833;28;20492;-64
2021/07/04 06:02:34;;;;;;;6.85;4.60;;;19.00;99.90;;;18.77;81.76;97126.75;5061814;28;20041;-63
2021/07/04 06:05:22;;;;;;;12.00;5.18;;;19.30;99.90;;;18.81;81.46;97133.41;5057138;28;20077;-63
2021/07/04 06:08:10;;;;;;;6.65;4.22;;;19.50;99.90;;;18.37;81.79;97145.75;5059005;28;20113;-64
2021/07/04 06:10:57;;;;;;;6.75;4.20;;;19.40;99.90;;;18.22;83.29;97149.59;5059969;28;20550;-63
2021/07/04 06:13:45;;;;;;;7.78;4.65;;;19.40;99.90;;;18.32;82.84;97152.34;5061654;28;20068;-63
2021/07/04 06:16:32;;;;;;;6.15;4.68;;;19.20;99.90;;;18.10;84.15;97158.47;5065632;28;20508;-63
2021/07/04 06:19:19;;;;;;;10.88;5.30;;;19.20;99.90;;;18.10;83.93;97154.06;5059031;28;20119;-63
2021/07/04 06:22:07;;;;;;;6.40;4.82;;;19.20;99.90;;;17.96;85.21;97147.28;5057918;28;20046;-63
2021/07/04 06:24:54;;;;;;;7.30;4.45;;;19.30;99.90;;;18.17;84.82;97149.16;5058908;28;20036;-63
2021/07/04 06:27:42;;;;;;;5.35;4.13;;;19.40;99.90;;;18.12;84.31;97153.94;5061768;28;20098;-63
2021/07/04 06:30:30;;;;;;;6.55;4.15;;;19.20;99.90;;;18.41;83.26;97141.09;5061289;28;20114;-63
2021/07/04 06:33:17;;;;;;;6.22;4.15;;;19.40;99.90;;;18.17;82.72;97147.34;5057062;28;20500;-63
2021/07/04 06:36:05;;;;;;;7.03;4.43;;;19.60;99.90;;;18.04;83.43;97154.56;5057761;28;20110;-63
2021/07/04 06:38:56;;;;;;;7.38;4.43;;;19.60;99.90;;;17.89;84.65;97148.72;5056262;28;20033;-63
2021/07/04 06:41:44;;;;;;;8.18;4.50;;;19.50;99.90;;;18.21;82.67;97147.13;5058585;28;20045;-63
2021/07/04 06:44:31;;;;;;;7.47;4.40;;;19.40;99.90;;;17.91;84.09;97144.19;5046541;28;20063;-63
2021/07/04 06:47:19;;;;;;;6.30;4.00;;;19.40;99.90;;;18.47;82.51;97150.25;5057648;28;20041;-63
2021/07/04 06:50:07;;;;;;;7.82;4.00;;;19.30;99.90;;;18.57;82.09;97151.19;5066333;28;20120;-63
2021/07/04 06:52:55;;;;;;;8.52;5.00;;;19.40;99.90;;;18.35;82.12;97137.16;5061161;28;20056;-63
2021/07/04 06:55:42;;;;;;;8.13;3.88;;;19.50;99.90;;;18.87;80.41;97139.13;5055388;28;20539;-64
2021/07/04 06:58:30;;;;;;;8.63;3.85;;;19.70;99.90;;;18.88;80.35;97140.78;5054773;28;20041;-63
2021/07/04 07:01:18;;;;;;;8.15;4.00;;;20.10;99.90;;;19.60;79.68;97137.31;5054929;28;20460;-63
2021/07/04 07:04:05;;;;;;;5.38;4.10;;;20.50;99.90;;;19.68;78.16;97134.84;5064076;28;20153;-63
2021/07/04 07:06:53;;;;;;;9.38;4.55;;;20.90;99.90;;;18.96;79.23;97141.81;5067058;28;20071;-63
2021/07/04 07:09:41;;;;;;;6.38;4.47;;;20.90;99.90;;;18.88;79.52;97140.78;5068303;28;20044;-63
2021/07/04 07:12:28;;;;;;;6.85;4.35;;;20.70;99.90;;;19.38;78.29;97131.25;5057895;28;20037;-63
2021/07/04 07:15:16;;;;;;;6.18;3.50;;;20.50;99.90;;;19.68;77.35;97131.38;5050805;28;20128;-63
2021/07/04 07:18:04;;;;;;;6.68;3.53;;;20.60;99.90;;;19.52;76.76;97127.44;5055174;28;20064;-64
2021/07/04 07:20:51;;;;;;;11.10;4.05;;;20.80;99.90;;;19.74;76.90;97133.53;5054741;28;20052;-63
2021/07/04 07:23:39;;;;;;;5.22;3.13;;;20.90;99.90;;;19.47;77.35;97126.16;5052562;28;20105;-64
2021/07/04 07:26:26;;;;;;;6.97;4.28;;;21.00;99.90;;;19.95;74.60;97125.53;5058997;28;20516;-63
2021/07/04 07:29:14;;;;;;;5.22;2.97;;;21.10;99.90;;;20.64;73.87;97125.53;5036914;28;20606;-64
2021/07/04 07:32:01;;;;;;;5.63;2.63;;;21.40;99.90;;;20.94;73.09;97122.81;5051650;28;20044;-64
2021/07/04 07:34:49;;;;;;;4.10;2.50;;;21.90;99.90;;;21.18;72.06;97112.66;5064160;28;20093;-63
2021/07/04 07:37:36;;;;;;;4.45;2.80;;;22.20;99.90;;;20.52;71.69;97117.84;5069579;28;20404;-64
2021/07/04 07:40:23;;;;;;;5.55;2.97;;;22.10;99.90;;;20.41;72.56;97122.28;5058095;28;20127;-63
2021/07/04 07:43:11;;;;;;;5.60;3.00;;;22.10;99.90;;;20.60;73.25;97113.56;5058104;28;20041;-63
2021/07/04 07:45:58;;;;;;;4.90;2.47;;;22.00;99.90;;;21.42;71.13;97096.34;5043123;28;20384;-63
2021/07/04 07:48:45;;;;;;;3.65;2.33;;;22.30;99.90;;;22.18;69.09;97097.91;5050827;28;20167;-63
2021/07/04 07:51:33;;;;;;;4.90;2.40;;;23.10;99.90;;;22.22;65.39;97099.28;5058909;28;20041;-64
2021/07/04 07:54:21;;;;;;;4.78;2.40;;;23.70;99.90;;;21.25;68.33;97097.91;5065705;28;20051;-63
2021/07/04 07:57:09;;;;;;;3.88;2.42;;;23.70;99.90;;;21.83;66.77;97088.94;5061057;28;20122;-63
2021/07/04 07:59:56;;;;;;;3.95;1.80;;;23.40;99.90;;;22.33;66.59;97088.50;5057319;28;20041;-64
2021/07/04 08:02:43;;;;;;;4.20;2.42;;;23.50;99.90;;;22.02;66.54;97095.09;5048550;28;20603;-64
2021/07/04 08:05:30;;;;;;;3.05;1.60;;;23.50;99.90;;;20.82;67.78;97093.13;5060100;28;20040;-63
2021/07/04 08:08:18;;;;;;;3.53;2.20;;;22.80;99.90;;;20.99;66.63;97092.44;5056415;28;20037;-63
2021/07/04 08:11:07;;;;;;;3.55;1.80;;;22.50;99.90;;;21.63;66.83;97090.03;5055187;28;20059;-63
2021/07/04 08:13:43;;;;;;;4.32;1.88;;;22.30;99.90;;;21.07;66.17;97091.69;5040333;28;20089;-63
2021/07/04 08:16:10;;;;;;;3.13;1.77;;;22.50;99.90;;;20.73;67.45;97096.63;5047506;28;20052;-64
2021/07/04 08:18:37;;;;;;;2.33;1.73;;;22.30;99.90;;;20.37;68.88;97094.53;5058871;28;20037;-64
2021/07/04 08:21:04;;;;;;;3.60;2.28;;;22.00;99.90;;;20.60;70.14;97084.56;5051478;28;20044;-63
2021/07/04 08:23:31;;;;;;;3.95;2.38;;;21.70;99.90;;;20.42;70.95;97088.84;5046319;28;20041;-63
2021/07/04 08:26:18;;;;;;;2.85;1.77;;;21.70;99.90;;;20.80;69.46;97084.53;5066964;28;20144;-63
2021/07/04 08:29:06;;;;;;;2.45;1.83;;;21.70;99.90;;;19.77;70.74;97077.94;5059478;28;20517;-63
2021/07/04 08:31:53;;;;;;;3.45;2.00;;;21.90;99.90;;;20.68;69.10;97076.78;5058243;28;20059;-63
2021/07/04 08:34:41;;;;;;;4.65;2.58;;;22.10;99.90;;;20.45;72.60;97084.13;5060089;28;20047;-63
2021/07/04 08:37:28;;;;;;;6.68;2.72;;;22.20;99.90;;;20.78;71.45;97076.78;5056887;28;20541;-63
2021/07/04 08:40:15;;;;;;;4.50;2.25;;;22.30;99.90;;;19.92;72.77;97079.22;5058903;28;20464;-63
2021/07/04 08:43:05;;;;;;;3.50;1.92;;;22.40;99.90;;;20.12;71.83;97077.47;5063235;28;20049;-63
2021/07/04 08:45:50;;;;;;;5.38;2.78;;;22.10;99.90;;;20.10;69.97;97078.56;5061852;28;20162;-63
2021/07/04 08:48:41;;;;;;;3.70;2.30;;;21.80;99.90;;;20.64;70.71;97066.66;5057199;28;20057;-63
2021/07/04 08:51:28;;;;;;;3.85;2.05;;;21.80;99.90;;;20.61;70.80;97069.56;5049653;28;20033;-63
2021/07/04 08:54:15;;;;;;;4.60;2.28;;;21.90;99.90;;;19.88;71.95;97075.19;5039889;28;20083;-63
2021/07/04 08:57:08;;;;;;;4.07;2.70;;;21.90;99.90;;;19.90;72.55;97065.38;5053731;28;20091;-63
2021/07/04 08:59:55;;;;;;;4.25;2.35;;;21.90;99.90;;;20.61;71.31;97062.50;5059548;28;20059;-63
2021/07/04 09:02:43;;;;;;;3.50;2.10;;;22.00;99.90;;;20.85;70.18;97061.22;5052700;28;20045;-63
2021/07/04 09:05:43;;;;;;;3.95;2.17;;;21.90;99.90;;;21.10;70.37;97057.13;5057711;28;20083;-63
2021/07/04 09:08:30;;;;;;;3.90;2.17;;;22.10;99.90;;;20.46;69.19;97058.63;5059388;28;20053;-63
2021/07/04 09:11:18;;;;;;;3.33;2.08;;;22.30;99.90;;;20.11;71.36;97057.34;5056205;28;20040;-63
2021/07/04 09:14:06;;;;;;;3.70;1.70;;;22.20;99.90;;;20.84;69.04;97055.09;5057823;28;20083;-63
2021/07/04 09:16:54;;;;;;;4.25;2.20;;;22.00;99.90;;;20.21;71.05;97060.00;5055289;28;20060;-63
2021/07/04 09:19:57;;;;;;;4.13;1.70;;;22.00;99.90;;;20.82;67.78;97048.31;5058960;28;20037;-63
2021/07/04 09:22:51;;;;;;;3.53;2.08;;;22.10;99.90;;;21.33;67.16;97043.56;5059439;28;20033;-63
2021/07/04 09:25:40;;;;;;;2.92;1.65;;;22.20;99.90;;;20.93;67.38;97036.75;5061017;28;20036;-63
2021/07/04 09:28:28;;;;;;;3.13;2.00;;;22.40;99.90;;;21.37;65.97;97029.94;5060799;28;20452;-63
2021/07/04 09:31:19;;;;;;;3.45;1.80;;;22.80;99.90;;;22.73;62.81;97028.97;5063945;28;20028;-63
2021/07/04 09:34:09;;;;;;;3.47;1.85;;;23.40;99.90;;;22.37;63.42;97030.84;5056415;28;20044;-63
2021/07/04 09:36:57;;;;;;;3.30;1.98;;;23.70;99.90;;;21.71;65.30;97032.00;5038926;28;20118;-63
2021/07/04 09:39:44;;;;;;;4.63;2.03;;;23.70;99.90;;;22.02;63.06;97029.00;5067985;28;20048;-63
2021/07/04 09:42:31;;;;;;;4.28;2.35;;;23.80;99.90;;;21.20;65.86;97033.34;5062271;28;20041;-62
2021/07/04 09:45:19;;;;;;;7.43;2.33;;;23.80;99.90;;;21.01;65.95;97032.44;5053314;28;20037;-63
2021/07/04 09:48:07;;;;;;;2.88;1.85;;;23.60;99.90;;;20.71;68.25;97025.59;5051495;28;20116;-63
2021/07/04 09:50:56;;;;;;;4.60;2.20;;;23.40;99.90;;;21.63;67.19;97018.72;5061959;28;20393;-62
2021/07/04 09:53:49;;;;;;;4.70;2.85;;;23.20;99.90;;;22.01;63.59;97014.13;5065080;28;20520;-62
2021/07/04 09:56:36;;;;;;;3.45;2.45;;;23.40;99.90;;;23.08;61.88;97010.50;5061674;28;20087;-63
2021/07/04 09:59:24;;;;;;;4.25;2.65;;;23.60;99.90;;;23.09;59.36;97010.38;5049969;28;20130;-63
2021/07/04 10:02:18;;;;;;;5.70;2.40;;;24.30;99.90;;;22.86;60.76;97002.09;5056019;28;20041;-62
2021/07/04 10:05:16;;;;;;;4.97;2.67;;;24.00;99.90;;;21.62;63.24;97006.47;5050150;28;20056;-63
2021/07/04 10:08:30;;;;;;;4.07;2.35;;;24.00;99.90;;;22.21;63.80;96997.16;5050103;28;20525;-62
2021/07/04 10:11:17;;;;;;;4.15;2.70;;;23.50;99.90;;;21.75;62.98;96992.91;5066933;28;20041;-62
2021/07/04 10:14:05;;;;;;;6.38;3.05;;;23.30;99.90;;;21.06;66.36;96995.88;5051629;28;20163;-62
2021/07/04 10:16:54;;;;;;;4.85;3.05;;;23.00;99.90;;;20.35;67.44;96998.97;5059934;28;20049;-62
2021/07/04 10:19:41;;;;;;;6.05;2.88;;;22.50;99.90;;;20.67;67.35;96997.81;5044950;28;20048;-62
2021/07/04 10:22:36;;;;;;;5.18;3.40;;;22.00;99.90;;;20.79;67.75;96996.66;5038759;28;20086;-63
2021/07/04 10:25:23;;;;;;;5.82;3.53;;;21.80;99.90;;;20.12;71.54;97021.31;5066989;28;20462;-62
2021/07/04 10:28:15;;;;;;;8.82;4.03;;;21.50;99.90;;;19.73;75.62;97043.16;5064021;28;20044;-63
2021/07/04 10:31:13;;;;;;;16.33;5.27;;;20.90;99.90;;;18.38;86.39;97068.59;5052438;28;20052;-63
2021/07/04 10:34:14;;;;;;;37.70;6.72;;;19.90;99.90;;;17.51;93.41;97073.78;5049904;28;20378;-61
2021/07/04 10:37:04;;;;;;;5.53;1.77;;;19.10;99.90;;;16.59;84.02;97059.88;5056047;28;20098;-61
2021/07/04 10:40:14;;;;;;;5.47;2.58;;;18.30;99.90;;;16.73;91.40;97037.88;5057483;28;20040;-61
2021/07/04 10:43:02;;;;;;;7.07;4.25;;;17.80;99.90;;;16.84;93.40;97032.69;5044507;28;20037;-63
2021/07/04 10:45:49;;;;;;;7.20;4.22;;;17.60;99.90;;;17.09;93.54;97017.69;5039690;28;20067;-61
2021/07/04 10:48:53;;;;;;;5.90;4.28;;;17.70;99.90;;;17.56;95.86;97015.69;5056303;28;20045;-63
2021/07/04 10:52:02;;;;;;;6.05;3.70;;;18.00;99.90;;;17.38;93.78;97006.66;5058994;28;20044;-63
2021/07/04 10:54:53;;;;;;;4.50;3.42;;;18.20;99.90;;;17.47;92.30;97011.19;5065887;28;20041;-63
2021/07/04 10:57:49;;;;;;;6.50;3.80;;;18.20;99.90;;;17.55;94.78;97016.69;5057706;28;20056;-62
2021/07/04 11:00:42;;;;;;;6.15;3.75;;;18.30;99.90;;;17.66;91.93;97029.78;5057022;28;20521;-63
2021/07/04 11:03:30;;;;;;;6.68;3.33;;;18.40;99.90;;;17.25;91.18;97027.81;5058455;28;20429;-63
2021/07/04 11:07:00;;;;;;;3.83;2.25;;;18.30;99.90;;;16.99;92.55;97028.06;5062188;28;20044;-62
2021/07/04 11:09:55;;;;;;;5.72;3.08;;;18.20;99.90;;;16.96;91.25;97035.31;5044288;28;20041;-63
2021/07/04 11:12:43;;;;;;;5.40;2.40;;;18.30;99.90;;;17.43;90.50;97022.91;5060894;28;20496;-63
2021/07/04 11:15:30;;;;;;;4.57;1.95;;;18.50;99.90;;;17.29;89.65;97027.44;5057415;28;20132;-63
2021/07/04 11:18:21;;;;;;;5.25;2.10;;;18.80;99.90;;;17.50;87.49;97019.66;5055618;28;20118;-63
2021/07/04 11:21:11;;;;;;;4.50;2.45;;;19.10;99.90;;;17.40;88.66;97020.50;5045481;28;20126;-63
2021/07/04 11:24:19;;;;;;;12.18;2.53;;;19.20;99.90;;;18.29;86.50;97008.06;5063812;28;20457;-63
2021/07/04 11:27:21;;;;;;;3.08;1.92;;;19.60;99.90;;;18.55;85.19;96993.59;5060911;28;20063;-63
2021/07/04 11:30:17;;;;;;;3.58;2.15;;;19.80;99.90;;;18.28;83.78;97009.06;5063582;28;20543;-63
2021/07/04 11:33:44;;;;;;;3.20;1.27;;;19.80;99.90;;;18.70;82.00;97002.00;5062829;28;20059;-63
2021/07/04 11:36:31;;;;;;;4.25;1.77;;;19.70;99.90;;;18.52;82.78;96998.28;5058398;28;20048;-63
2021/07/04 11:39:18;;;;;;;5.30;1.52;;;19.70;99.90;;;18.14;83.73;97005.78;5044084;28;20044;-63
2021/07/04 11:42:06;;;;;;;3.55;1.38;;;19.70;99.90;;;18.37;82.92;97000.41;5052666;28;20045;-63
2021/07/04 11:44:53;;;;;;;3.95;1.67;;;19.70;99.90;;;17.96;84.69;96997.59;5034849;28;20056;-63
2021/07/04 11:47:57;;;;;;;2.17;1.23;;;19.60;99.90;;;18.03;81.95;96995.31;5064341;28;20579;-63